Ragersville, Ohio
Current Conditions -  °F | °C
As of 11:21 PM on Tuesday 27 Jan 2015 (Local Time) from KPHD Reporting Station
Overcast Overcast  
Wind Chill:   Ceiling: 1400
Heat Index: 17°   Visibility: 10mi
Dew Point: 11°   Wind: 7mph
Humidity: 77%   Direction: 330°NNW
Pressure: 30.18"   Gusts: NA
Location:  40.5178°N, 81.673°W
Report Text: KPHD 280421Z AUTO 33006KT 10SM OVC014 M08/M12 A3018 RMK AO2 T10831117
Loading
Personal Weather Stations






























Interactive Weather Map New forecast layout! Learn more

10-Day Weather Forecast

Advertisements
Track Severe Weather on mobile